Time;durP1;ratioP1;P1;durP2;ratioP2;P2;SDS_P1;SDS_P2;PMS_P1;PMS_P2;Temp;Humidity;BMP_temperature;BMP_pressure;BME280_temperature;BME280_humidity;BME280_pressure;Samples;Min_cycle;Max_cycle;Signal;HPM_P1;HPM_P2
2020/12/10 00:00:12;;;;;;;11.13;10.00;;;;;;;3.95;82.89;94797.91;5054390;28;20232;-78
2020/12/10 00:02:38;;;;;;;11.43;10.23;;;;;;;3.92;82.96;94794.84;5054147;28;20213;-78
2020/12/10 00:05:07;;;;;;;11.43;10.20;;;;;;;3.95;83.15;94797.91;5053749;28;20212;-78
2020/12/10 00:07:34;;;;;;;11.00;9.90;;;;;;;3.95;82.69;94789.47;5054375;28;20245;-77
2020/12/10 00:10:00;;;;;;;10.87;9.77;;;;;;;3.83;82.38;94801.69;5054204;28;20221;-78
2020/12/10 00:12:26;;;;;;;11.00;9.90;;;;;;;3.75;83.76;94799.09;5054368;28;20223;-78
2020/12/10 00:14:54;;;;;;;11.30;10.13;;;;;;;3.79;83.50;94801.19;5053948;28;20217;-77
2020/12/10 00:17:24;;;;;;;11.23;10.03;;;;;;;3.85;83.46;94789.56;5054438;28;20255;-79
2020/12/10 00:19:50;;;;;;;11.17;10.03;;;;;;;3.86;83.55;94790.38;5053635;28;20230;-78
2020/12/10 00:22:17;;;;;;;11.03;9.93;;;;;;;3.86;83.77;94787.84;5054101;28;20208;-78
2020/12/10 00:24:43;;;;;;;11.60;10.43;;;;;;;3.88;83.08;94781.63;5053967;28;20274;-79
2020/12/10 00:27:09;;;;;;;11.20;10.00;;;;;;;3.91;82.99;94778.78;5053421;28;20205;-78
2020/12/10 00:29:35;;;;;;;11.07;9.97;;;;;;;3.87;83.59;94776.69;5054058;28;20221;-79
2020/12/10 00:32:01;;;;;;;11.43;10.30;;;;;;;3.81;84.29;94780.69;5053402;28;20259;-77
2020/12/10 00:34:27;;;;;;;11.13;10.03;;;;;;;3.75;84.04;94779.53;5053782;28;20283;-78
2020/12/10 00:36:52;;;;;;;11.27;9.60;;;;;;;3.82;84.34;94779.72;5053510;28;20202;-77
2020/12/10 00:39:19;;;;;;;11.57;9.87;;;;;;;3.84;84.05;94789.75;5052817;28;20568;-77
2020/12/10 00:41:45;;;;;;;10.63;9.63;;;;;;;3.85;83.67;94788.81;5053257;28;20205;-78
2020/12/10 00:44:11;;;;;;;10.43;9.43;;;;;;;3.90;83.44;94778.94;5053489;28;20228;-78
2020/12/10 00:46:39;;;;;;;11.10;9.90;;;;;;;3.93;82.96;94779.44;5053513;28;20197;-77
2020/12/10 00:49:05;;;;;;;10.33;9.33;;;;;;;3.95;83.02;94764.78;5053102;28;20201;-77
2020/12/10 00:51:31;;;;;;;10.90;9.60;;;;;;;3.92;83.49;94765.09;5053248;28;20233;-79
2020/12/10 00:53:57;;;;;;;11.07;9.97;;;;;;;3.94;82.88;94752.22;5053191;28;20205;-78
2020/12/10 00:56:23;;;;;;;10.67;9.63;;;;;;;3.89;83.51;94754.44;5053065;28;20708;-78
2020/12/10 00:58:49;;;;;;;11.03;9.93;;;;;;;3.92;83.37;94754.13;5053220;28;20672;-79
2020/12/10 01:01:16;;;;;;;10.90;9.80;;;;;;;3.96;82.82;94760.50;5053344;28;20290;-77
2020/12/10 01:03:41;;;;;;;10.63;9.33;;;;;;;3.94;82.51;94757.31;5053197;28;20212;-78
2020/12/10 01:06:11;;;;;;;10.20;9.20;;;;;;;3.87;82.49;94761.41;5053352;28;20613;-77
2020/12/10 01:08:37;;;;;;;11.20;10.07;;;;;;;3.86;83.38;94750.44;5053936;28;20225;-77
2020/12/10 01:11:03;;;;;;;9.93;8.97;;;;;;;3.83;82.88;94749.97;5053168;28;20225;-78
2020/12/10 01:13:30;;;;;;;10.27;9.27;;;;;;;3.83;83.38;94745.69;5053383;28;20259;-78
2020/12/10 01:15:56;;;;;;;10.83;9.73;;;;;;;3.84;83.46;94744.72;5052811;28;20229;-78
2020/12/10 01:18:22;;;;;;;11.10;10.00;;;;;;;3.87;83.25;94746.94;5053044;28;20204;-78
2020/12/10 01:20:48;;;;;;;9.80;8.90;;;;;;;3.87;83.43;94744.41;5052778;28;20290;-77
2020/12/10 01:23:14;;;;;;;10.17;9.17;;;;;;;3.90;82.85;94744.09;5053696;28;20607;-78
2020/12/10 01:25:40;;;;;;;10.77;9.70;;;;;;;3.91;82.85;94745.69;5053469;28;20198;-78
2020/12/10 01:28:05;;;;;;;11.27;10.13;;;;;;;3.96;83.09;94743.47;5052901;28;20201;-78
2020/12/10 01:30:32;;;;;;;11.10;10.00;;;;;;;3.89;83.27;94744.25;5052987;28;20232;-78
2020/12/10 01:32:58;;;;;;;10.93;9.83;;;;;;;3.91;83.55;94743.13;5053137;28;20201;-77
2020/12/10 01:35:24;;;;;;;10.57;9.27;;;;;;;3.93;83.30;94740.44;5053160;28;20794;-79
2020/12/10 01:37:50;;;;;;;12.10;10.47;;;;;;;3.88;83.21;94745.19;5053226;28;20217;-79
2020/12/10 01:40:16;;;;;;;10.97;9.77;;;;;;;3.91;83.17;94735.50;5053347;28;20251;-78
2020/12/10 01:42:42;;;;;;;11.27;10.07;;;;;;;3.93;82.96;94742.97;5052895;28;20205;-78
2020/12/10 01:45:08;;;;;;;11.50;10.30;;;;;;;3.94;83.66;94747.94;5052653;28;20212;-79
2020/12/10 01:47:35;;;;;;;10.77;9.67;;;;;;;3.91;83.06;94740.59;5053298;28;20312;-79
2020/12/10 01:50:01;;;;;;;12.53;10.67;;;;;;;3.94;82.72;94739.47;5054157;28;20236;-79
2020/12/10 01:52:27;;;;;;;11.97;10.33;;;;;;;3.93;82.60;94737.91;5056839;28;20202;-78
2020/12/10 01:54:53;;;;;;;10.50;9.47;;;;;;;3.94;82.33;94731.84;5056180;28;20264;-77
2020/12/10 01:57:19;;;;;;;10.60;9.53;;;;;;;3.96;82.13;94730.75;5056230;28;20206;-77
2020/12/10 01:59:47;;;;;;;10.30;9.30;;;;;;;3.94;82.22;94727.56;5056168;28;20223;-77
2020/12/10 02:02:14;;;;;;;10.87;9.77;;;;;;;3.97;81.88;94723.91;5056750;28;20201;-78
2020/12/10 02:04:41;;;;;;;11.40;10.30;;;;;;;3.94;82.27;94717.38;5056906;28;20208;-79
2020/12/10 02:07:07;;;;;;;11.57;10.37;;;;;;;3.99;82.10;94709.25;5056462;28;20209;-78
2020/12/10 02:09:33;;;;;;;11.50;10.30;;;;;;;3.98;82.11;94711.00;5055638;28;20222;-76
2020/12/10 02:11:59;;;;;;;10.77;9.67;;;;;;;3.98;82.42;94700.81;5055137;28;20711;-75
2020/12/10 02:14:32;;;;;;;11.20;10.07;;;;;;;3.99;82.14;94699.88;5054649;28;20205;-78
2020/12/10 02:16:58;;;;;;;11.40;10.17;;;;;;;3.97;81.94;94691.59;5056259;28;20201;-76
2020/12/10 02:19:24;;;;;;;11.50;10.30;;;;;;;3.93;82.18;94694.59;5055856;28;20296;-78
2020/12/10 02:21:50;;;;;;;11.33;10.10;;;;;;;3.94;82.02;94683.47;5056526;28;20232;-77
2020/12/10 02:24:18;;;;;;;11.77;10.53;;;;;;;3.98;82.02;94689.84;5056032;28;20206;-78
2020/12/10 02:26:45;;;;;;;11.73;10.30;;;;;;;4.02;81.83;94689.38;5055857;28;20217;-78
2020/12/10 02:29:11;;;;;;;11.70;10.50;;;;;;;4.02;81.70;94688.56;5055983;28;20571;-78
2020/12/10 02:31:38;;;;;;;11.43;10.23;;;;;;;4.05;81.41;94688.25;5056228;28;20727;-78
2020/12/10 02:34:05;;;;;;;11.90;10.47;;;;;;;4.03;81.36;94680.78;5056123;28;20259;-78
2020/12/10 02:36:33;;;;;;;11.30;10.17;;;;;;;4.02;81.46;94671.56;5056171;28;20220;-78
2020/12/10 02:38:58;;;;;;;11.97;10.43;;;;;;;4.04;81.77;94671.41;5055859;28;20197;-77
2020/12/10 02:41:25;;;;;;;11.10;10.00;;;;;;;4.04;81.50;94667.06;5056016;28;20221;-77
2020/12/10 02:43:51;;;;;;;12.23;11.03;;;;;;;4.04;81.45;94667.06;5055792;28;20210;-78
2020/12/10 02:46:18;;;;;;;11.50;10.30;;;;;;;4.06;81.51;94670.25;5056017;28;20665;-78
2020/12/10 02:48:44;;;;;;;11.97;10.77;;;;;;;4.07;81.04;94668.50;5055809;28;20209;-78
2020/12/10 02:51:11;;;;;;;12.53;11.23;;;;;;;4.07;81.27;94666.75;5056037;28;20236;-78
2020/12/10 02:53:38;;;;;;;11.53;10.33;;;;;;;4.08;81.31;94660.72;5055621;28;20197;-78
2020/12/10 02:56:08;;;;;;;10.57;9.57;;;;;;;4.07;81.25;94659.13;5055359;28;20229;-78
2020/12/10 02:58:35;;;;;;;11.63;10.43;;;;;;;4.06;81.33;94644.00;5055875;28;20229;-78
2020/12/10 03:01:01;;;;;;;11.33;10.23;;;;;;;4.11;81.23;94649.41;5055038;28;20723;-79
2020/12/10 03:03:26;;;;;;;12.13;10.83;;;;;;;4.11;81.14;94637.47;5055393;28;20207;-78
2020/12/10 03:05:52;;;;;;;11.87;10.67;;;;;;;4.14;81.03;94647.34;5055218;28;20574;-78
2020/12/10 03:08:18;;;;;;;11.53;10.30;;;;;;;4.14;81.24;94636.34;5055342;28;20208;-79
2020/12/10 03:10:44;;;;;;;11.67;10.23;;;;;;;4.14;81.46;94639.69;5055751;28;20225;-81
2020/12/10 03:13:10;;;;;;;11.97;10.67;;;;;;;4.11;80.83;94639.22;5055218;28;20197;-76
2020/12/10 03:15:37;;;;;;;11.47;10.27;;;;;;;4.14;81.30;94632.06;5053764;28;20221;-75
2020/12/10 03:18:03;;;;;;;11.07;9.87;;;;;;;4.12;80.87;94636.50;5053688;28;20209;-76
2020/12/10 03:20:29;;;;;;;12.27;10.63;;;;;;;4.07;81.59;94626.00;5053698;28;20599;-76
2020/12/10 03:22:55;;;;;;;11.37;9.87;;;;;;;4.10;81.22;94627.44;5053888;28;20212;-75
2020/12/10 03:25:21;;;;;;;11.33;10.00;;;;;;;4.15;80.92;94630.31;5054838;28;20212;-76
2020/12/10 03:27:46;;;;;;;11.43;10.30;;;;;;;4.02;81.14;94622.38;5054504;28;20251;-76
2020/12/10 03:30:13;;;;;;;11.33;10.13;;;;;;;4.00;81.86;94625.06;5054085;28;20225;-76
2020/12/10 03:32:40;;;;;;;11.33;10.20;;;;;;;4.06;81.64;94614.22;5054351;28;20224;-79
2020/12/10 03:35:06;;;;;;;11.70;10.50;;;;;;;4.11;81.15;94616.28;5053923;28;20259;-76
2020/12/10 03:37:32;;;;;;;11.60;10.40;;;;;;;4.11;81.44;94617.09;5054272;28;20202;-76
2020/12/10 03:39:58;;;;;;;10.90;9.77;;;;;;;4.14;81.05;94609.13;5053953;28;20225;-77
2020/12/10 03:42:24;;;;;;;12.60;10.67;;;;;;;4.16;81.01;94614.88;5055906;28;20201;-76
2020/12/10 03:44:55;;;;;;;11.27;10.17;;;;;;;4.16;80.91;94612.31;5055754;28;20198;-77
2020/12/10 03:47:21;;;;;;;11.13;9.93;;;;;;;4.15;80.92;94608.19;5056506;28;20581;-76
2020/12/10 03:49:49;;;;;;;10.50;9.47;;;;;;;4.19;80.75;94601.03;5055957;28;20229;-76
2020/12/10 03:52:15;;;;;;;10.67;9.57;;;;;;;4.15;80.54;94592.91;5055713;28;20658;-77
2020/12/10 03:54:41;;;;;;;10.13;9.13;;;;;;;4.16;80.37;94598.78;5055565;28;20205;-76
2020/12/10 03:57:07;;;;;;;10.37;9.37;;;;;;;4.18;80.35;94593.53;5055333;28;20205;-76
2020/12/10 03:59:33;;;;;;;9.80;8.90;;;;;;;4.13;79.90;94583.81;5053495;28;20222;-77
2020/12/10 04:01:59;;;;;;;10.20;9.20;;;;;;;4.11;80.62;94583.97;5052690;28;20284;-76
2020/12/10 04:04:28;;;;;;;10.50;9.40;;;;;;;4.11;80.83;94575.53;5053073;28;20243;-77
2020/12/10 04:06:54;;;;;;;9.30;8.40;;;;;;;4.08;80.66;94573.31;5053289;28;20198;-77
2020/12/10 04:09:20;;;;;;;9.83;8.83;;;;;;;4.13;80.65;94584.63;5053475;28;20216;-77
2020/12/10 04:11:46;;;;;;;10.23;9.13;;;;;;;4.01;80.26;94580.03;5052947;28;20201;-76
2020/12/10 04:14:12;;;;;;;10.20;9.20;;;;;;;4.03;80.39;94584.00;5052005;28;20201;-76
2020/12/10 04:16:38;;;;;;;9.43;8.43;;;;;;;4.04;80.08;94579.72;5052954;28;20565;-77
2020/12/10 04:19:04;;;;;;;10.27;9.17;;;;;;;4.06;80.64;94576.03;5053033;28;20197;-76
2020/12/10 04:21:30;;;;;;;9.27;8.37;;;;;;;4.09;80.49;94580.00;5053920;28;20236;-75
2020/12/10 04:23:57;;;;;;;9.80;8.90;;;;;;;4.10;80.76;94579.06;5052667;28;20706;-76
2020/12/10 04:26:23;;;;;;;9.97;8.63;;;;;;;4.06;81.27;94577.78;5053094;28;20201;-76
2020/12/10 04:28:49;;;;;;;9.80;8.80;;;;;;;4.08;81.04;94571.56;5053836;28;20212;-77
2020/12/10 04:31:16;;;;;;;9.97;8.97;;;;;;;4.14;80.33;94575.22;5052866;28;20587;-76
2020/12/10 04:33:43;;;;;;;9.73;8.73;;;;;;;4.15;80.23;94577.63;5053377;28;20193;-76
2020/12/10 04:36:09;;;;;;;9.97;8.90;;;;;;;4.09;80.90;94574.91;5053123;28;20226;-76
2020/12/10 04:38:35;;;;;;;10.33;9.17;;;;;;;4.13;80.82;94566.78;5053121;28;20200;-77
2020/12/10 04:41:03;;;;;;;10.47;9.43;;;;;;;4.10;80.76;94574.75;5053217;28;20602;-78
2020/12/10 04:43:29;;;;;;;10.40;9.30;;;;;;;4.07;80.05;94572.53;5053162;28;20622;-77
2020/12/10 04:45:57;;;;;;;10.00;9.00;;;;;;;4.11;79.84;94578.88;5052556;28;20201;-77
2020/12/10 04:48:25;;;;;;;10.40;9.30;;;;;;;4.11;79.94;94581.44;5053478;28;20636;-77
2020/12/10 04:50:52;;;;;;;10.73;9.63;;;;;;;4.12;80.24;94569.50;5052839;28;20225;-76
2020/12/10 04:53:19;;;;;;;9.87;8.87;;;;;;;4.15;80.09;94566.63;5053682;28;20193;-77
2020/12/10 04:55:45;;;;;;;9.83;8.83;;;;;;;4.18;79.75;94568.84;5052631;28;20244;-77
2020/12/10 04:58:11;;;;;;;9.87;8.87;;;;;;;4.19;79.61;94569.66;5052775;28;20691;-77
2020/12/10 05:00:37;;;;;;;10.47;9.37;;;;;;;4.19;79.73;94569.66;5052505;28;20228;-75
2020/12/10 05:03:03;;;;;;;10.47;9.47;;;;;;;4.21;79.44;94572.84;5052627;28;20217;-76
2020/12/10 05:05:32;;;;;;;10.37;9.30;;;;;;;4.17;79.70;94559.63;5051895;28;20200;-78
2020/12/10 05:07:59;;;;;;;10.60;9.50;;;;;;;4.18;80.09;94563.75;5053025;28;20208;-77
2020/12/10 05:10:26;;;;;;;10.47;9.43;;;;;;;4.18;80.25;94566.31;5052359;28;20217;-77
2020/12/10 05:13:05;;;;;;;11.00;9.80;;;;;;;4.13;80.57;94564.25;5052631;28;20201;-77
2020/12/10 05:15:33;;;;;;;10.23;9.23;;;;;;;4.16;80.92;94556.28;5050973;28;20225;-76
2020/12/10 05:18:08;;;;;;;10.90;9.80;;;;;;;4.18;80.80;94561.22;5047028;28;20538;-77
2020/12/10 05:20:44;;;;;;;9.57;8.57;;;;;;;4.16;81.07;94552.94;5060298;28;20219;-77
2020/12/10 05:23:11;;;;;;;9.97;8.97;;;;;;;4.22;80.83;94564.25;5052016;28;20224;-76
2020/12/10 05:25:48;;;;;;;10.40;9.30;;;;;;;4.21;80.86;94558.34;5064863;28;20193;-77
2020/12/10 05:28:14;;;;;;;10.80;9.40;;;;;;;4.23;81.15;94558.19;5055816;28;20798;-76
2020/12/10 05:30:43;;;;;;;10.30;9.20;;;;;;;4.26;80.85;94557.84;5056481;28;20246;-75
2020/12/10 05:33:11;;;;;;;10.33;9.30;;;;;;;4.28;81.15;94559.28;5056018;28;20204;-77
2020/12/10 05:35:37;;;;;;;11.73;10.53;;;;;;;4.30;80.96;94559.91;5055422;28;20228;-76
2020/12/10 05:38:11;;;;;;;10.27;9.20;;;;;;;4.32;80.75;94552.09;5056280;28;20220;-77
2020/12/10 05:40:38;;;;;;;10.80;9.70;;;;;;;4.33;80.51;94557.03;5055230;28;20221;-76
2020/12/10 05:43:04;;;;;;;10.47;9.20;;;;;;;4.32;80.57;94555.44;5055623;28;20583;-77
2020/12/10 05:45:30;;;;;;;11.90;10.53;;;;;;;4.33;80.47;94553.69;5055737;28;20202;-77
2020/12/10 05:47:58;;;;;;;10.37;9.37;;;;;;;4.33;80.55;94558.78;5056049;28;20213;-78
2020/12/10 05:50:26;;;;;;;11.17;10.00;;;;;;;4.31;80.42;94551.31;5055277;28;20229;-76
2020/12/10 05:53:02;;;;;;;12.37;10.20;;;;;;;4.28;80.00;94555.94;5055643;28;20205;-76
2020/12/10 05:55:28;;;;;;;11.40;10.20;;;;;;;4.21;80.62;94555.81;5055249;28;20225;-76
2020/12/10 05:57:54;;;;;;;9.93;8.93;;;;;;;4.23;80.95;94546.25;5055940;28;20270;-77
2020/12/10 06:00:20;;;;;;;11.30;9.90;;;;;;;4.23;80.47;94545.44;5055286;28;20257;-76
2020/12/10 06:02:46;;;;;;;10.57;9.47;;;;;;;4.25;80.63;94554.50;5055447;28;20580;-76
2020/12/10 06:05:15;;;;;;;10.60;9.50;;;;;;;4.27;80.53;94547.50;5055086;28;20220;-76
2020/12/10 06:08:00;;;;;;;10.63;9.43;;;;;;;4.26;80.60;94560.38;5055308;28;20554;-76
2020/12/10 06:10:26;;;;;;;10.63;9.53;;;;;;;4.26;80.63;94556.09;5055026;28;20243;-76
2020/12/10 06:12:52;;;;;;;10.70;9.60;;;;;;;4.26;80.51;94557.84;5055314;28;20224;-77
2020/12/10 06:15:22;;;;;;;10.43;9.33;;;;;;;4.28;79.99;94559.28;5054914;28;20225;-76
2020/12/10 06:17:59;;;;;;;11.67;10.47;;;;;;;4.27;80.29;94552.59;5055552;28;20340;-77
2020/12/10 06:20:33;;;;;;;11.23;10.13;;;;;;;4.28;80.40;94553.38;5055714;28;20286;-77
2020/12/10 06:23:31;;;;;;;11.17;10.00;;;;;;;4.30;80.52;94551.47;5054975;28;20672;-77
2020/12/10 06:25:59;;;;;;;29.77;24.10;;;;;;;4.29;80.90;94552.41;5055147;28;20299;-76
2020/12/10 06:28:26;;;;;;;20.23;16.87;;;;;;;4.22;82.07;94554.06;5055291;28;20205;-76
2020/12/10 06:31:06;;;;;;;16.10;13.97;;;;;;;4.19;82.54;94551.81;5055467;28;20217;-77
2020/12/10 06:33:35;;;;;;;14.13;12.23;;;;;;;4.22;82.83;94551.50;5056632;28;20276;-77
2020/12/10 06:38:55;;;;;;;12.97;11.57;;;;;;;4.20;82.47;94553.41;5110381;27;20915;-76
2020/12/10 06:41:22;;;;;;;11.43;10.23;;;;;;;4.16;82.46;94547.84;5110312;28;20628;-75
2020/12/10 06:43:48;;;;;;;33.33;26.70;;;;;;;4.20;82.21;94558.50;5109877;28;20206;-76
2020/12/10 06:46:14;;;;;;;16.23;14.30;;;;;;;4.24;82.02;94550.34;5110320;28;20192;-76
2020/12/10 06:48:42;;;;;;;20.23;17.20;;;;;;;4.28;81.28;94554.19;5110077;28;20218;-76
2020/12/10 06:51:12;;;;;;;13.00;11.47;;;;;;;4.25;79.89;94562.13;5109763;28;20729;-78
2020/12/10 06:53:38;;;;;;;12.77;11.47;;;;;;;4.24;80.27;94559.75;5111350;28;20200;-77
2020/12/10 06:56:08;;;;;;;12.20;10.57;;;;;;;4.20;79.76;94561.84;5110226;28;20543;-76
2020/12/10 06:59:00;;;;;;;11.90;10.60;;;;;;;4.23;79.79;94566.63;5110948;28;20790;-78
2020/12/10 07:01:31;;;;;;;12.37;10.60;;;;;;;4.53;86.51;94561.75;5095509;28;20310;-76
2020/12/10 07:04:33;;;;;;;71.63;54.63;;;;;;;4.46;81.93;94557.31;5109323;28;20611;-76
2020/12/10 07:07:19;;;;;;;31.30;24.00;;;;;;;4.45;80.91;94553.16;5109978;28;20240;-77
2020/12/10 07:09:46;;;;;;;22.57;19.13;;;;;;;4.35;81.44;94561.97;5109492;28;20701;-76
2020/12/10 07:12:19;;;;;;;20.00;15.50;;;;;;;4.34;81.37;94563.72;5109416;28;20196;-76
2020/12/10 07:14:45;;;;;;;13.87;11.83;;;;;;;4.37;80.94;94565.94;5109101;28;20690;-76
2020/12/10 07:17:11;;;;;;;14.17;11.73;;;;;;;4.37;80.61;94560.84;5109344;28;20242;-76
2020/12/10 07:19:37;;;;;;;13.40;11.50;;;;;;;4.36;80.63;94566.09;5109512;28;20710;-76
2020/12/10 07:22:03;;;;;;;14.17;11.83;;;;;;;4.31;80.60;94560.69;5109356;28;20576;-76
2020/12/10 07:24:29;;;;;;;14.17;12.67;;;;;;;4.29;80.99;94563.41;5109264;28;20286;-78
2020/12/10 07:26:55;;;;;;;13.00;11.70;;;;;;;4.31;81.10;94563.25;5109103;28;20192;-77
2020/12/10 07:29:22;;;;;;;12.90;11.50;;;;;;;4.31;80.73;94556.41;5109405;28;20206;-77
2020/12/10 07:31:48;;;;;;;13.40;12.00;;;;;;;4.28;80.77;94554.19;5109161;28;20195;-77
2020/12/10 07:34:14;;;;;;;14.00;12.50;;;;;;;4.30;80.82;94547.16;5109273;28;20200;-78
2020/12/10 07:36:46;;;;;;;12.93;11.53;;;;;;;4.34;80.46;94542.53;5108692;28;20208;-77
2020/12/10 07:39:13;;;;;;;14.20;11.63;;;;;;;4.32;80.60;94545.25;5109051;28;20207;-76
2020/12/10 07:41:39;;;;;;;13.13;11.73;;;;;;;4.34;80.61;94547.63;5108734;28;20296;-76
2020/12/10 07:44:05;;;;;;;17.10;13.47;;;;;;;4.33;80.38;94539.19;5108373;28;20192;-77
2020/12/10 07:46:35;;;;;;;40.80;33.90;;;;;;;4.27;80.38;94537.28;5108736;28;20192;-75
2020/12/10 07:49:01;;;;;;;49.50;37.93;;;;;;;4.18;82.97;94543.38;5102438;28;20663;-76
2020/12/10 07:51:27;;;;;;;45.20;34.67;;;;;;;4.23;81.46;94533.50;5095024;28;20258;-77
2020/12/10 07:54:01;;;;;;;22.97;17.97;;;;;;;4.31;81.12;94538.56;5094573;28;20671;-75
2020/12/10 07:56:29;;;;;;;16.87;14.57;;;;;;;4.36;80.88;94538.09;5094948;28;20211;-77
2020/12/10 07:59:02;;;;;;;19.90;13.60;;;;;;;4.38;81.02;94531.88;5094931;28;20237;-76
2020/12/10 08:01:38;;;;;;;14.23;12.40;;;;;;;4.39;80.72;94530.91;5094982;28;20224;-76
2020/12/10 08:04:13;;;;;;;14.30;12.63;;;;;;;4.39;80.50;94540.31;5094908;28;20199;-78
2020/12/10 08:06:41;;;;;;;16.70;13.63;;;;;;;4.37;80.31;94532.81;5094855;28;20200;-79
2020/12/10 08:09:08;;;;;;;10.93;9.03;;;;;;;4.62;98.53;94532.75;5095291;28;20207;-78
2020/12/10 08:11:34;;;;;;;12.13;8.40;;;;;;;5.07;100.00;94530.25;5094645;28;20216;-79
2020/12/10 08:14:02;;;;;;;13.10;11.80;;;;;;;5.35;86.24;94528.03;5094736;28;20196;-78
2020/12/10 08:16:39;;;;;;;14.97;12.70;;;;;;;5.32;79.27;94530.13;5095845;28;20204;-76
2020/12/10 08:19:15;;;;;;;14.90;13.20;;;;;;;5.17;78.64;94518.09;5094533;28;20579;-76
2020/12/10 08:21:42;;;;;;;14.93;13.33;;;;;;;5.03;78.72;94523.09;5094685;28;20238;-77
2020/12/10 08:24:08;;;;;;;14.97;13.23;;;;;;;4.89;78.74;94524.63;5094400;28;20207;-76
2020/12/10 08:26:34;;;;;;;14.43;12.93;;;;;;;4.80;79.00;94518.00;5094576;28;20200;-76
2020/12/10 08:29:00;;;;;;;18.03;14.07;;;;;;;4.65;78.63;94525.53;5094529;28;20196;-77
2020/12/10 08:31:27;;;;;;;16.70;14.90;;;;;;;4.61;79.42;94523.50;5095001;28;20247;-77
2020/12/10 08:33:55;;;;;;;58.40;41.97;;;;;;;4.60;78.94;94516.81;5094076;28;20667;-76
2020/12/10 08:36:29;;;;;;;33.47;26.03;;;;;;;4.52;78.46;94520.19;5094602;28;20211;-76
2020/12/10 08:38:57;;;;;;;22.00;17.97;;;;;;;4.54;78.74;94525.13;5094403;28;20219;-76
2020/12/10 08:41:27;;;;;;;17.23;15.30;;;;;;;4.53;79.09;94516.69;5094054;28;20223;-76
2020/12/10 08:43:54;;;;;;;16.43;14.57;;;;;;;4.54;79.09;94522.56;5094100;28;20196;-75
2020/12/10 08:46:20;;;;;;;15.33;13.73;;;;;;;4.50;79.32;94519.56;5094057;28;20206;-76
2020/12/10 08:48:46;;;;;;;17.90;14.17;;;;;;;4.46;78.56;94521.63;5094330;28;20567;-77
2020/12/10 08:51:13;;;;;;;15.93;14.20;;;;;;;4.48;78.87;94512.06;5094088;28;20234;-77
2020/12/10 08:53:45;;;;;;;16.20;13.23;;;;;;;4.48;78.43;94519.72;5094167;28;20204;-77
2020/12/10 08:56:18;;;;;;;16.23;13.63;;;;;;;4.49;78.15;94516.19;5094868;28;20675;-75
2020/12/10 08:58:44;;;;;;;18.20;14.03;;;;;;;4.42;77.97;94522.16;5093677;28;20252;-77
2020/12/10 09:01:10;;;;;;;16.40;14.17;;;;;;;4.31;78.32;94525.03;5092685;28;20220;-76
2020/12/10 09:03:36;;;;;;;15.80;14.10;;;;;;;4.26;78.83;94535.72;5094438;28;20211;-76
2020/12/10 09:06:02;;;;;;;17.57;14.00;;;;;;;4.30;78.89;94531.09;5093925;28;20200;-77
2020/12/10 09:08:29;;;;;;;15.90;14.17;;;;;;;4.37;79.18;94529.47;5094553;28;20197;-79
2020/12/10 09:10:54;;;;;;;16.27;14.57;;;;;;;4.42;78.67;94532.34;5093453;28;20231;-76
2020/12/10 09:13:23;;;;;;;25.47;19.17;;;;;;;4.48;78.50;94531.66;5093587;28;20211;-77
2020/12/10 09:15:49;;;;;;;54.57;41.10;;;;;;;4.54;78.38;94525.13;5093527;28;20234;-76
2020/12/10 09:18:15;;;;;;;33.90;27.00;;;;;;;4.57;78.38;94528.13;5093098;28;20255;-76
2020/12/10 09:20:41;;;;;;;19.47;16.83;;;;;;;4.59;78.28;94523.66;5093582;28;20270;-76
2020/12/10 09:23:07;;;;;;;19.03;15.33;;;;;;;4.60;77.95;94525.25;5093544;28;20202;-76
2020/12/10 09:25:34;;;;;;;16.57;14.77;;;;;;;4.48;77.51;94524.81;5093200;28;20196;-77
2020/12/10 09:28:00;;;;;;;16.30;13.27;;;;;;;4.48;77.85;94514.63;5093175;28;20693;-77
2020/12/10 09:30:27;;;;;;;17.53;13.93;;;;;;;4.44;78.14;94510.00;5093416;28;20311;-76
2020/12/10 09:32:53;;;;;;;19.27;14.10;;;;;;;4.49;77.95;94510.31;5093149;28;20204;-76
2020/12/10 09:35:19;;;;;;;16.20;13.30;;;;;;;4.53;77.61;94514.13;5094288;28;20204;-76
2020/12/10 09:37:45;;;;;;;16.67;13.37;;;;;;;4.60;77.73;94504.88;5093226;28;20753;-76
2020/12/10 09:40:13;;;;;;;15.13;13.47;;;;;;;4.66;78.19;94506.72;5093254;28;20583;-76
2020/12/10 09:42:41;;;;;;;16.67;14.20;;;;;;;4.70;78.38;94510.53;5092918;28;20204;-76
2020/12/10 09:45:10;;;;;;;17.87;14.70;;;;;;;4.76;78.04;94511.63;5092877;28;20203;-75
2020/12/10 09:47:36;;;;;;;17.77;14.50;;;;;;;4.60;77.61;94509.97;5093086;28;20261;-76
2020/12/10 09:50:04;;;;;;;18.23;15.13;;;;;;;4.59;77.71;94495.63;5092838;28;20253;-77
2020/12/10 09:52:40;;;;;;;17.27;14.23;;;;;;;4.64;78.69;94497.66;5093211;28;20208;-76
2020/12/10 09:55:11;;;;;;;17.93;14.70;;;;;;;4.72;78.51;94489.97;5092179;28;20199;-77
2020/12/10 09:57:37;;;;;;;18.63;15.80;;;;;;;4.70;78.87;94490.16;5093220;28;20615;-76
2020/12/10 10:00:08;;;;;;;20.73;16.87;;;;;;;4.58;78.86;94494.03;5093092;28;20212;-76
2020/12/10 10:02:34;;;;;;;20.03;16.70;;;;;;;4.63;79.51;94490.97;5092882;28;20253;-75
2020/12/10 10:05:00;;;;;;;22.37;17.73;;;;;;;4.66;79.58;94485.53;5092659;28;20202;-75
2020/12/10 10:07:26;;;;;;;20.90;17.07;;;;;;;4.70;78.71;94479.16;5092787;28;20200;-77
2020/12/10 10:09:52;;;;;;;18.40;15.87;;;;;;;4.74;78.49;94480.41;5092851;28;20240;-77
2020/12/10 10:12:18;;;;;;;18.87;16.07;;;;;;;4.80;78.58;94474.66;5092458;28;20196;-76
2020/12/10 10:14:44;;;;;;;19.67;16.07;;;;;;;4.87;78.68;94478.09;5092216;28;20257;-75
2020/12/10 10:17:11;;;;;;;19.50;16.23;;;;;;;4.85;78.65;94477.47;5092466;28;20219;-76
2020/12/10 10:19:37;;;;;;;19.00;16.47;;;;;;;4.82;77.83;94478.59;5092505;28;20203;-76
2020/12/10 10:22:04;;;;;;;21.17;15.70;;;;;;;4.86;78.39;94471.41;5092365;28;20200;-76
2020/12/10 10:24:31;;;;;;;19.83;16.17;;;;;;;4.83;76.99;94476.84;5092657;28;20196;-77
2020/12/10 10:26:57;;;;;;;18.27;15.13;;;;;;;4.67;76.90;94464.97;5092943;28;20196;-77
2020/12/10 10:29:23;;;;;;;19.60;16.00;;;;;;;4.59;77.30;94470.16;5092790;28;20207;-77
2020/12/10 10:31:50;;;;;;;20.20;16.23;;;;;;;4.56;78.21;94467.91;5092661;28;20204;-76
2020/12/10 10:34:18;;;;;;;18.53;15.97;;;;;;;4.66;78.04;94467.69;5092095;28;20204;-76
2020/12/10 10:36:44;;;;;;;21.47;15.93;;;;;;;4.69;77.72;94463.06;5092342;28;20203;-76
2020/12/10 10:39:11;;;;;;;19.37;16.03;;;;;;;4.74;77.70;94465.13;5092356;28;20220;-77
2020/12/10 10:41:41;;;;;;;19.17;16.17;;;;;;;4.74;77.10;94460.03;5092272;28;20234;-76
2020/12/10 10:44:07;;;;;;;17.83;15.37;;;;;;;4.76;77.14;94458.88;5091966;28;20201;-76
2020/12/10 10:46:33;;;;;;;19.63;15.97;;;;;;;4.82;77.24;94457.41;5092226;28;20607;-77
2020/12/10 10:48:59;;;;;;;97.20;70.67;;;;;;;4.86;77.53;94458.66;5092402;28;20250;-76
2020/12/10 10:51:26;;;;;;;31.43;24.17;;;;;;;4.82;76.32;94448.00;5091720;28;20315;-76
2020/12/10 10:53:52;;;;;;;20.93;17.33;;;;;;;4.76;76.82;94447.91;5092004;28;20217;-76
2020/12/10 10:56:20;;;;;;;21.47;17.20;;;;;;;4.69;77.15;94445.22;5092512;28;20634;-77
2020/12/10 10:58:46;;;;;;;19.00;15.80;;;;;;;4.77;77.28;94436.75;5092004;28;20228;-76
2020/12/10 11:01:12;;;;;;;19.53;15.70;;;;;;;4.82;77.11;94442.91;5091989;28;20247;-76
2020/12/10 11:03:38;;;;;;;19.60;16.37;;;;;;;4.79;76.29;94432.28;5092202;28;20200;-76
2020/12/10 11:06:04;;;;;;;19.83;16.83;;;;;;;4.82;76.54;94437.78;5091662;28;20196;-76
2020/12/10 11:08:31;;;;;;;19.20;15.50;;;;;;;4.88;76.03;94443.19;5092427;28;20200;-77
2020/12/10 11:11:01;;;;;;;18.50;15.20;;;;;;;4.86;75.61;94438.25;5092031;28;20225;-76
2020/12/10 11:13:27;;;;;;;19.67;16.03;;;;;;;4.91;76.19;94446.19;5091986;28;20196;-77
2020/12/10 11:15:53;;;;;;;17.27;14.07;;;;;;;4.74;75.82;94442.16;5091534;28;20204;-76
2020/12/10 11:18:19;;;;;;;16.50;14.33;;;;;;;4.80;76.11;94434.66;5092283;28;20222;-77
2020/12/10 11:20:44;;;;;;;11.03;8.83;;;;;;;5.09;95.60;94436.50;5092186;28;20220;-75
2020/12/10 11:23:12;;;;;;;10.53;8.93;;;;;;;5.53;97.15;94434.06;5091928;28;20675;-75
2020/12/10 11:25:39;;;;;;;14.47;12.60;;;;;;;5.77;84.28;94429.69;5095695;28;20200;-76
2020/12/10 11:28:05;;;;;;;14.67;12.80;;;;;;;5.87;76.06;94428.47;5096102;28;20200;-76
2020/12/10 11:30:31;;;;;;;15.53;13.00;;;;;;;5.80;73.60;94422.47;5096677;28;20233;-76
2020/12/10 11:33:23;;;;;;;16.00;13.57;;;;;;;5.61;72.32;94419.63;5096874;28;20196;-75